Terminal Aerodrome Forecast
Issued by NWS

Home | Current Version | Previous Version | Text Only | Print | Product List | Glossary On
Versions: 1 2 3 4 5 6 7 8 9 10 11 12 13 14 15 16 17 18 19 20 21 22 23 24 25 26 27 28 29 30 31 32 33
000
FTUS42 KCAE 242138 AAD
TAFOGB
TAF AMD
KOGB 242138Z 2422/2518 16005KT P6SM VCTS SCT040 BKN060CB
      TEMPO 2422/2424 4SM -TSRA BR SCT020 BKN040CB OVC070
     FM250300 VRB04KT P6SM SCT006 BKN050
     FM251400 24006KT P6SM SCT040 BKN060=

USA.gov is the U.S. government's official web portal to all federal, state and local government web resources and services.